Time;durP1;ratioP1;P1;durP2;ratioP2;P2;SDS_P1;SDS_P2;PMS_P1;PMS_P2;Temp;Humidity;BMP_temperature;BMP_pressure;BME280_temperature;BME280_humidity;BME280_pressure;Samples;Min_cycle;Max_cycle;Signal;HPM_P1;HPM_P2
2023/09/29 00:01:35;;;;;;;4.40;4.05;;;;;;;;;;5038753;28;20216;-67
2023/09/29 00:04:04;;;;;;;4.43;3.53;;;;;;;;;;5043550;28;20207;-67
2023/09/29 00:06:32;;;;;;;4.32;3.92;;;;;;;;;;5023825;28;20214;-67
2023/09/29 00:08:59;;;;;;;4.38;4.05;;;;;;;;;;5024254;28;20350;-67
2023/09/29 00:11:26;;;;;;;4.13;3.72;;;;;;;;;;5043428;28;20214;-67
2023/09/29 00:13:54;;;;;;;4.07;3.80;;;;;;;;;;5034425;28;20314;-64
2023/09/29 00:16:21;;;;;;;4.20;3.85;;;;;;;;;;5042743;28;20833;-65
2023/09/29 00:18:48;;;;;;;4.38;3.70;;;;;;;;;;5037773;28;20250;-65
2023/09/29 00:21:16;;;;;;;3.88;3.50;;;;;;;;;;5032377;28;20200;-67
2023/09/29 00:23:44;;;;;;;4.43;4.07;;;;;;;;;;5043504;28;20232;-67
2023/09/29 00:26:11;;;;;;;4.05;3.85;;;;;;;;;;5034395;28;20204;-67
2023/09/29 00:28:38;;;;;;;4.13;3.88;;;;;;;;;;5036323;28;20209;-67
2023/09/29 00:31:06;;;;;;;5.18;3.53;;;;;;;;;;5034585;28;20212;-65
2023/09/29 00:33:33;;;;;;;4.43;3.40;;;;;;;;;;5036535;28;20208;-65
2023/09/29 00:36:00;;;;;;;3.35;3.05;;;;;;;;;;5035642;28;20220;-65
2023/09/29 00:38:29;;;;;;;3.80;3.55;;;;;;;;;;5035317;28;20200;-65
2023/09/29 00:40:56;;;;;;;3.20;3.00;;;;;;;;;;5031561;28;20204;-65
2023/09/29 00:43:23;;;;;;;6.43;3.85;;;;;;;;;;5037976;28;20223;-65
2023/09/29 00:45:52;;;;;;;3.78;3.40;;;;;;;;;;5036984;28;20207;-66
2023/09/29 00:48:19;;;;;;;4.72;3.75;;;;;;;;;;5035727;28;20232;-66
2023/09/29 00:50:46;;;;;;;4.18;3.78;;;;;;;;;;5035517;28;20216;-66
2023/09/29 00:53:17;;;;;;;4.18;3.72;;;;;;;;;;5036385;28;20226;-66
2023/09/29 00:55:48;;;;;;;3.75;3.55;;;;;;;;;;5035973;28;20235;-65
2023/09/29 00:58:17;;;;;;;3.92;3.63;;;;;;;;;;5036986;28;20657;-65
2023/09/29 01:00:45;;;;;;;5.38;3.42;;;;;;;;;;5036799;28;20303;-66
2023/09/29 01:03:15;;;;;;;6.80;3.80;;;;;;;;;;5036831;28;20203;-65
2023/09/29 01:05:43;;;;;;;4.45;3.78;;;;;;;;;;5035241;28;20721;-65
2023/09/29 01:08:12;;;;;;;4.53;3.88;;;;;;;;;;5034680;28;20371;-66
2023/09/29 01:10:39;;;;;;;4.10;3.25;;;;;;;;;;5035563;28;20258;-65
2023/09/29 01:13:08;;;;;;;5.20;3.53;;;;;;;;;;5035934;28;20210;-65
2023/09/29 01:15:36;;;;;;;5.30;3.55;;;;;;;;;;5035374;28;20702;-65
2023/09/29 01:18:03;;;;;;;5.78;3.90;;;;;;;;;;5037465;28;20569;-65
2023/09/29 01:20:31;;;;;;;5.85;3.55;;;;;;;;;;5030933;28;20204;-65
2023/09/29 01:23:00;;;;;;;7.13;4.20;;;;;;;;;;5037660;28;20239;-65
2023/09/29 01:25:28;;;;;;;7.03;3.90;;;;;;;;;;5050494;28;20541;-65
2023/09/29 01:27:55;;;;;;;4.88;3.90;;;;;;;;;;5048302;28;20200;-67
2023/09/29 01:30:24;;;;;;;4.68;4.20;;;;;;;;;;5047517;28;20246;-66
2023/09/29 01:32:53;;;;;;;4.90;4.45;;;;;;;;;;5050310;28;20214;-66
2023/09/29 01:35:23;;;;;;;4.55;4.15;;;;;;;;;;5050489;28;20223;-66
2023/09/29 01:37:51;;;;;;;5.07;4.68;;;;;;;;;;5050673;28;20203;-66
2023/09/29 01:40:20;;;;;;;6.90;4.18;;;;;;;;;;5050967;28;20607;-66
2023/09/29 01:42:49;;;;;;;4.00;3.70;;;;;;;;;;5050252;28;20208;-66
2023/09/29 01:45:16;;;;;;;4.13;3.80;;;;;;;;;;5045233;28;20247;-67
2023/09/29 01:47:45;;;;;;;3.97;3.67;;;;;;;;;;5050331;28;20199;-66
2023/09/29 01:50:14;;;;;;;3.92;3.63;;;;;;;;;;5046145;28;20284;-67
2023/09/29 01:52:41;;;;;;;5.53;3.88;;;;;;;;;;5048162;28;20299;-66
2023/09/29 01:55:09;;;;;;;6.28;4.20;;;;;;;;;;5048545;28;20736;-66
2023/09/29 01:57:37;;;;;;;4.68;4.28;;;;;;;;;;5049100;28;20210;-66
2023/09/29 02:00:15;;;;;;;7.13;4.20;;;;;;;;;;5049033;28;20215;-66
2023/09/29 02:02:43;;;;;;;6.28;4.03;;;;;;;;;;5048660;28;20214;-66
2023/09/29 02:05:11;;;;;;;5.07;4.57;;;;;;;;;;5048315;28;20246;-66
2023/09/29 02:07:38;;;;;;;4.63;4.22;;;;;;;;;;5048370;28;20573;-67
2023/09/29 02:10:07;;;;;;;4.60;4.10;;;;;;;;;;5049835;28;20311;-67
2023/09/29 02:12:35;;;;;;;6.85;4.38;;;;;;;;;;5049894;28;20273;-66
2023/09/29 02:15:06;;;;;;;4.80;4.40;;;;;;;;;;5049616;28;20557;-66
2023/09/29 02:17:36;;;;;;;4.82;4.50;;;;;;;;;;5030247;28;20842;-66
2023/09/29 02:20:11;;;;;;;4.38;3.97;;;;;;;;;;5036092;28;20307;-67
2023/09/29 02:22:39;;;;;;;5.30;4.90;;;;;;;;;;5034916;28;20243;-66
2023/09/29 02:25:07;;;;;;;4.47;4.15;;;;;;;;;;5049986;28;20299;-66
2023/09/29 02:27:36;;;;;;;4.88;4.07;;;;;;;;;;5049799;28;20211;-67
2023/09/29 02:30:03;;;;;;;8.10;4.03;;;;;;;;;;5048399;28;20235;-66
2023/09/29 02:32:30;;;;;;;4.45;4.05;;;;;;;;;;5049324;28;20666;-67
2023/09/29 02:34:59;;;;;;;6.22;4.03;;;;;;;;;;5048943;28;20262;-67
2023/09/29 02:37:26;;;;;;;5.85;4.00;;;;;;;;;;5049566;28;20227;-67
2023/09/29 02:39:54;;;;;;;4.40;4.00;;;;;;;;;;5049702;28;20208;-67
2023/09/29 02:42:21;;;;;;;4.32;3.92;;;;;;;;;;5049325;28;20211;-66
2023/09/29 02:44:49;;;;;;;4.20;3.90;;;;;;;;;;5049440;28;20219;-67
2023/09/29 02:47:16;;;;;;;3.90;3.70;;;;;;;;;;5049001;28;20196;-66
2023/09/29 02:49:43;;;;;;;5.25;4.13;;;;;;;;;;5049304;28;20210;-67
2023/09/29 02:52:12;;;;;;;7.30;3.90;;;;;;;;;;5049566;28;20207;-67
2023/09/29 02:54:39;;;;;;;4.13;3.83;;;;;;;;;;5045790;28;20239;-67
2023/09/29 02:57:07;;;;;;;4.55;4.15;;;;;;;;;;5044043;28;20232;-66
2023/09/29 02:59:34;;;;;;;3.97;3.75;;;;;;;;;;5043066;28;20212;-67
2023/09/29 03:02:03;;;;;;;3.90;3.70;;;;;;;;;;5041949;28;20692;-67
2023/09/29 03:04:30;;;;;;;3.90;3.60;;;;;;;;;;5043400;28;20680;-66
2023/09/29 03:06:58;;;;;;;3.78;3.53;;;;;;;;;;5045595;28;20200;-67
2023/09/29 03:09:29;;;;;;;6.03;3.58;;;;;;;;;;5046950;28;20203;-67
2023/09/29 03:11:58;;;;;;;3.70;3.50;;;;;;;;;;5048886;28;20716;-66
2023/09/29 03:14:25;;;;;;;4.03;3.83;;;;;;;;;;5040874;28;20207;-66
2023/09/29 03:16:53;;;;;;;4.55;3.50;;;;;;;;;;5043633;28;20223;-67
2023/09/29 03:19:20;;;;;;;3.88;3.42;;;;;;;;;;5039561;28;20242;-66
2023/09/29 03:21:48;;;;;;;4.28;3.50;;;;;;;;;;5045461;28;20242;-66
2023/09/29 03:24:15;;;;;;;4.35;3.75;;;;;;;;;;5042414;28;20203;-66
2023/09/29 03:26:45;;;;;;;3.92;3.65;;;;;;;;;;5030528;28;20241;-66
2023/09/29 03:29:12;;;;;;;3.80;3.50;;;;;;;;;;5048508;28;20645;-66
2023/09/29 03:31:39;;;;;;;6.72;3.72;;;;;;;;;;5048826;28;20230;-67
2023/09/29 03:34:06;;;;;;;3.95;3.50;;;;;;;;;;5048000;28;20208;-66
2023/09/29 03:36:34;;;;;;;4.07;3.78;;;;;;;;;;5048027;28;20281;-66
2023/09/29 03:39:05;;;;;;;3.53;3.33;;;;;;;;;;5037831;28;20615;-66
2023/09/29 03:41:33;;;;;;;5.55;3.45;;;;;;;;;;5040968;28;20234;-67
2023/09/29 03:44:01;;;;;;;4.13;3.42;;;;;;;;;;5037903;28;20203;-66
2023/09/29 03:46:29;;;;;;;4.05;3.63;;;;;;;;;;5037364;28;20401;-66
2023/09/29 03:48:56;;;;;;;5.97;3.80;;;;;;;;;;5046059;28;20242;-67
2023/09/29 03:51:24;;;;;;;3.90;3.60;;;;;;;;;;5047960;28;20239;-66
2023/09/29 03:53:51;;;;;;;4.10;3.60;;;;;;;;;;5047795;28;20219;-66
2023/09/29 03:56:18;;;;;;;4.47;4.18;;;;;;;;;;5047742;28;20269;-67
2023/09/29 03:58:46;;;;;;;4.82;3.75;;;;;;;;;;5047379;28;20211;-66
2023/09/29 04:01:15;;;;;;;4.15;3.50;;;;;;;;;;5045701;28;20231;-66
2023/09/29 04:03:42;;;;;;;3.30;3.00;;;;;;;;;;5043920;28;20650;-67
2023/09/29 04:06:09;;;;;;;3.80;3.58;;;;;;;;;;5044813;28;20203;-66
2023/09/29 04:08:36;;;;;;;3.58;3.38;;;;;;;;;;5047983;28;20203;-66
2023/09/29 04:11:03;;;;;;;3.60;3.40;;;;;;;;;;5047975;28;20273;-66
2023/09/29 04:13:30;;;;;;;4.18;3.70;;;;;;;;;;5047719;28;20211;-66
2023/09/29 04:15:59;;;;;;;7.50;3.40;;;;;;;;;;5046225;28;20207;-66
2023/09/29 04:18:27;;;;;;;3.38;3.10;;;;;;;;;;5043816;28;20654;-67
2023/09/29 04:20:54;;;;;;;3.33;3.13;;;;;;;;;;5045149;28;20215;-66
2023/09/29 04:23:22;;;;;;;4.55;3.70;;;;;;;;;;5047220;28;20235;-66
2023/09/29 04:25:49;;;;;;;5.80;3.30;;;;;;;;;;5046237;28;20211;-67
2023/09/29 04:28:16;;;;;;;3.80;3.60;;;;;;;;;;5040164;28;20210;-66
2023/09/29 04:30:43;;;;;;;3.97;3.60;;;;;;;;;;5043632;28;20211;-67
2023/09/29 04:33:10;;;;;;;3.40;3.10;;;;;;;;;;5047234;28;20295;-66
2023/09/29 04:35:38;;;;;;;4.88;4.28;;;;;;;;;;5047530;28;20203;-66
2023/09/29 04:38:05;;;;;;;4.10;3.88;;;;;;;;;;5046814;28;20234;-66
2023/09/29 04:40:32;;;;;;;4.75;3.90;;;;;;;;;;5047406;28;20704;-66
2023/09/29 04:42:59;;;;;;;4.30;3.42;;;;;;;;;;5047512;28;20211;-66
2023/09/29 04:45:27;;;;;;;3.47;3.38;;;;;;;;;;5047573;28;20215;-66
2023/09/29 04:47:54;;;;;;;4.25;3.92;;;;;;;;;;5046818;28;20203;-67
2023/09/29 04:50:21;;;;;;;3.95;3.50;;;;;;;;;;5047036;28;20678;-66
2023/09/29 04:52:50;;;;;;;3.65;3.35;;;;;;;;;;5047181;28;20311;-66
2023/09/29 04:55:17;;;;;;;4.50;3.47;;;;;;;;;;5050566;28;20200;-66
2023/09/29 04:57:44;;;;;;;4.40;4.03;;;;;;;;;;5050842;28;20235;-66
2023/09/29 05:00:11;;;;;;;5.10;4.45;;;;;;;;;;5050980;28;20647;-66
2023/09/29 05:02:38;;;;;;;4.55;4.25;;;;;;;;;;5050881;28;20256;-67
2023/09/29 05:05:05;;;;;;;4.47;4.07;;;;;;;;;;5049995;28;20626;-67
2023/09/29 05:07:32;;;;;;;5.03;4.03;;;;;;;;;;5050854;28;20199;-67
2023/09/29 05:10:01;;;;;;;4.10;3.80;;;;;;;;;;5050884;28;20207;-67
2023/09/29 05:12:30;;;;;;;4.15;3.80;;;;;;;;;;5050935;28;20207;-67
2023/09/29 05:14:57;;;;;;;5.93;4.15;;;;;;;;;;5048712;28;20801;-67
2023/09/29 05:17:24;;;;;;;4.20;3.90;;;;;;;;;;5048679;28;20235;-67
2023/09/29 05:19:51;;;;;;;4.03;3.83;;;;;;;;;;5048853;28;20215;-66
2023/09/29 05:22:18;;;;;;;6.70;4.10;;;;;;;;;;5047528;28;20241;-66
2023/09/29 05:24:45;;;;;;;4.50;4.25;;;;;;;;;;5050896;28;20204;-66
2023/09/29 05:27:14;;;;;;;4.70;4.18;;;;;;;;;;5048216;28;20196;-69
2023/09/29 05:29:41;;;;;;;4.22;3.88;;;;;;;;;;5048539;28;20262;-66
2023/09/29 05:32:08;;;;;;;4.55;4.25;;;;;;;;;;5042992;28;20208;-66
2023/09/29 05:34:35;;;;;;;4.28;3.95;;;;;;;;;;5046745;28;20246;-65
2023/09/29 05:37:02;;;;;;;4.00;3.70;;;;;;;;;;5033834;28;20278;-63
2023/09/29 05:39:30;;;;;;;4.75;4.35;;;;;;;;;;5042518;28;20208;-68
2023/09/29 05:41:57;;;;;;;3.60;3.40;;;;;;;;;;5048151;28;20693;-68
2023/09/29 05:44:26;;;;;;;5.70;3.97;;;;;;;;;;5047833;28;20211;-68
2023/09/29 05:46:54;;;;;;;5.32;3.78;;;;;;;;;;5046150;28;21105;-67
2023/09/29 05:49:21;;;;;;;4.07;3.78;;;;;;;;;;5048375;28;20701;-68
2023/09/29 05:51:48;;;;;;;4.80;4.40;;;;;;;;;;5050242;28;20218;-64
2023/09/29 05:54:15;;;;;;;4.90;3.75;;;;;;;;;;5049046;28;20211;-66
2023/09/29 05:56:42;;;;;;;8.25;3.67;;;;;;;;;;5050030;28;20251;-65
2023/09/29 05:59:09;;;;;;;4.35;4.03;;;;;;;;;;5048877;28;20312;-65
2023/09/29 06:01:37;;;;;;;4.15;3.85;;;;;;;;;;5049752;28;20242;-65
2023/09/29 06:04:04;;;;;;;4.35;4.07;;;;;;;;;;5049267;28;20282;-65
2023/09/29 06:06:31;;;;;;;6.35;4.55;;;;;;;;;;5049089;28;20521;-65
2023/09/29 06:08:59;;;;;;;7.68;4.95;;;;;;;;;;5045305;28;20218;-65
2023/09/29 06:11:26;;;;;;;6.05;4.70;;;;;;;;;;5033108;28;20303;-65
2023/09/29 06:13:53;;;;;;;6.90;5.15;;;;;;;;;;5039785;28;20267;-67
2023/09/29 06:16:20;;;;;;;6.28;4.85;;;;;;;;;;5038444;28;20216;-64
2023/09/29 06:18:49;;;;;;;5.75;5.13;;;;;;;;;;5048829;28;20227;-65
2023/09/29 06:21:17;;;;;;;6.88;5.40;;;;;;;;;;5031135;28;20208;-67
2023/09/29 06:23:44;;;;;;;4.47;4.18;;;;;;;;;;5040588;28;20262;-65
2023/09/29 06:26:11;;;;;;;4.55;4.28;;;;;;;;;;5047469;28;20685;-65
2023/09/29 06:28:38;;;;;;;5.65;4.82;;;;;;;;;;5046900;28;20208;-65
2023/09/29 06:31:06;;;;;;;5.25;4.82;;;;;;;;;;5044503;28;20208;-65
2023/09/29 06:33:33;;;;;;;5.55;5.10;;;;;;;;;;5046170;28;20203;-65
2023/09/29 06:36:01;;;;;;;10.48;6.95;;;;;;;;;;5049451;28;20207;-65
2023/09/29 06:38:29;;;;;;;7.50;6.70;;;;;;;;;;5046309;28;20909;-66
2023/09/29 06:40:58;;;;;;;7.97;6.70;;;;;;;;;;5049235;28;20214;-65
2023/09/29 06:43:25;;;;;;;7.43;6.40;;;;;;;;;;5049394;28;20548;-65
2023/09/29 06:45:52;;;;;;;7.75;6.95;;;;;;;;;;5048683;28;20696;-65
2023/09/29 06:48:19;;;;;;;7.65;6.85;;;;;;;;;;5047060;28;20204;-65
2023/09/29 06:50:46;;;;;;;8.18;7.15;;;;;;;;;;5047239;28;20203;-66
2023/09/29 06:53:15;;;;;;;10.82;7.07;;;;;;;;;;5046756;28;20206;-66
2023/09/29 06:55:42;;;;;;;11.98;6.68;;;;;;;;;;5048798;28;20261;-65
2023/09/29 06:58:09;;;;;;;8.25;6.72;;;;;;;;;;5038362;28;20230;-65
2023/09/29 07:00:36;;;;;;;7.68;6.80;;;;;;;;;;5045899;28;20700;-65
2023/09/29 07:03:03;;;;;;;12.70;7.68;;;;;;;;;;5048234;28;20199;-66
2023/09/29 07:05:30;;;;;;;9.15;7.32;;;;;;;;;;5048169;28;20207;-65
2023/09/29 07:07:57;;;;;;;7.95;6.07;;;;;;;;;;5048042;28;20199;-67
2023/09/29 07:10:25;;;;;;;8.93;6.05;;;;;;;;;;5049010;28;20208;-67
2023/09/29 07:12:52;;;;;;;9.13;6.60;;;;;;;;;;5048936;28;20692;-65
2023/09/29 07:15:19;;;;;;;5.63;5.15;;;;;;;;;;5047054;28;20444;-67
2023/09/29 07:17:47;;;;;;;5.97;5.47;;;;;;;;;;5046253;28;20235;-64
2023/09/29 07:20:14;;;;;;;8.32;6.50;;;;;;;;;;5046422;28;20312;-67
2023/09/29 07:22:41;;;;;;;11.02;7.00;;;;;;;;;;5047838;28;20231;-66
2023/09/29 07:25:08;;;;;;;8.35;7.55;;;;;;;;;;5048290;28;20569;-66
2023/09/29 07:27:39;;;;;;;7.10;6.47;;;;;;;;;;5044400;28;20259;-65
2023/09/29 07:30:07;;;;;;;10.73;7.55;;;;;;;;;;5048156;28;20215;-66
2023/09/29 07:32:34;;;;;;;8.90;6.93;;;;;;;;;;5047849;28;20208;-68
2023/09/29 07:35:01;;;;;;;8.40;6.95;;;;;;;;;;5046059;28;20227;-65
2023/09/29 07:37:28;;;;;;;7.03;6.32;;;;;;;;;;5039841;28;20849;-70
2023/09/29 07:39:55;;;;;;;7.28;6.60;;;;;;;;;;5043516;28;20662;-70
2023/09/29 07:42:22;;;;;;;7.07;6.43;;;;;;;;;;5029665;28;20671;-69
2023/09/29 07:44:50;;;;;;;6.82;6.13;;;;;;;;;;5028023;28;20223;-68
2023/09/29 07:47:17;;;;;;;5.95;5.38;;;;;;;;;;5043848;28;20196;-69
2023/09/29 07:49:44;;;;;;;12.80;6.05;;;;;;;;;;5029838;28;20246;-69
2023/09/29 07:52:11;;;;;;;6.95;5.97;;;;;;;;;;5044489;28;20208;-68
2023/09/29 07:54:39;;;;;;;14.13;6.18;;;;;;;;;;5044074;28;20282;-66
2023/09/29 07:57:06;;;;;;;7.38;5.55;;;;;;;;;;5035589;28;20204;-69
2023/09/29 07:59:33;;;;;;;9.80;6.45;;;;;;;;;;5044878;28;20234;-68
2023/09/29 08:02:02;;;;;;;7.97;6.20;;;;;;;;;;5046308;28;20203;-69
2023/09/29 08:04:29;;;;;;;7.63;5.18;;;;;;;;;;5047352;28;20204;-66
2023/09/29 08:06:56;;;;;;;8.32;6.22;;;;;;;;;;5045489;28;20200;-68
2023/09/29 08:09:23;;;;;;;7.78;5.63;;;;;;;;;;5045272;28;20206;-67
2023/09/29 08:11:50;;;;;;;6.63;6.03;;;;;;;;;;5042346;28;20200;-67
2023/09/29 08:14:17;;;;;;;8.38;5.82;;;;;;;;;;5046940;28;20203;-67
2023/09/29 08:16:44;;;;;;;7.78;5.32;;;;;;;;;;5044263;28;20222;-68
2023/09/29 08:19:13;;;;;;;7.97;5.68;;;;;;;;;;5046391;28;20228;-68
2023/09/29 08:21:40;;;;;;;6.18;4.80;;;;;;;;;;5045763;28;20826;-68
2023/09/29 08:24:07;;;;;;;11.48;5.13;;;;;;;;;;5044987;28;20210;-67
2023/09/29 08:26:34;;;;;;;6.28;4.70;;;;;;;;;;5045371;28;20285;-68
2023/09/29 08:29:03;;;;;;;5.00;4.60;;;;;;;;;;5045205;28;20239;-68
2023/09/29 08:31:30;;;;;;;5.22;4.72;;;;;;;;;;5045620;28;20218;-68
2023/09/29 08:33:57;;;;;;;6.80;4.93;;;;;;;;;;5045865;28;20211;-68
2023/09/29 08:36:25;;;;;;;8.57;5.60;;;;;;;;;;5045524;28;20272;-67
2023/09/29 08:38:53;;;;;;;5.55;5.05;;;;;;;;;;5044567;28;20235;-68
2023/09/29 08:41:24;;;;;;;5.03;4.63;;;;;;;;;;5045605;28;20589;-67
2023/09/29 08:43:51;;;;;;;7.30;4.85;;;;;;;;;;5045502;28;20219;-67
2023/09/29 08:46:20;;;;;;;9.30;5.53;;;;;;;;;;5045660;28;20210;-67
2023/09/29 08:48:48;;;;;;;5.32;4.82;;;;;;;;;;5045291;28;20203;-67
2023/09/29 08:51:15;;;;;;;9.50;5.85;;;;;;;;;;5045446;28;20582;-68
2023/09/29 08:53:44;;;;;;;5.40;5.00;;;;;;;;;;5045145;28;20211;-68
2023/09/29 08:56:14;;;;;;;4.90;4.55;;;;;;;;;;5045891;28;20242;-67
2023/09/29 08:58:41;;;;;;;8.45;5.38;;;;;;;;;;5044788;28;20234;-68
2023/09/29 09:01:09;;;;;;;6.38;4.97;;;;;;;;;;5045195;28;20215;-68
2023/09/29 09:03:36;;;;;;;6.60;4.90;;;;;;;;;;5045965;28;20219;-68
2023/09/29 09:06:03;;;;;;;9.75;5.18;;;;;;;;;;5045056;28;20214;-67
2023/09/29 09:08:30;;;;;;;5.75;5.25;;;;;;;;;;5045017;28;20199;-68
2023/09/29 09:11:02;;;;;;;4.85;4.45;;;;;;;;;;5028131;28;20215;-67
2023/09/29 09:13:30;;;;;;;5.10;4.68;;;;;;;;;;5025588;28;20693;-68
2023/09/29 09:15:57;;;;;;;5.03;4.63;;;;;;;;;;5040352;28;20235;-68
2023/09/29 09:18:25;;;;;;;6.25;5.15;;;;;;;;;;5044977;28;20247;-68
2023/09/29 09:20:53;;;;;;;5.00;4.50;;;;;;;;;;5044643;28;20208;-68
2023/09/29 09:23:20;;;;;;;6.80;4.70;;;;;;;;;;5045401;28;20733;-68
2023/09/29 09:25:47;;;;;;;5.57;5.10;;;;;;;;;;5044990;28;20740;-68
2023/09/29 09:28:22;;;;;;;5.00;4.50;;;;;;;;;;5045256;28;20212;-68
2023/09/29 09:30:51;;;;;;;4.50;4.07;;;;;;;;;;5044276;28;20211;-68
2023/09/29 09:33:21;;;;;;;8.95;4.90;;;;;;;;;;5045430;28;20234;-68
2023/09/29 09:35:48;;;;;;;6.15;4.38;;;;;;;;;;5029830;28;20218;-68
2023/09/29 09:38:15;;;;;;;6.00;4.82;;;;;;;;;;5025384;28;20232;-68
2023/09/29 09:40:42;;;;;;;6.85;4.85;;;;;;;;;;5027178;28;20204;-68
2023/09/29 09:43:10;;;;;;;4.68;4.00;;;;;;;;;;5028629;28;20208;-68
2023/09/29 09:45:40;;;;;;;7.68;4.30;;;;;;;;;;5046389;28;20204;-68
2023/09/29 09:48:08;;;;;;;4.22;3.85;;;;;;;;;;5049090;28;20231;-68
2023/09/29 09:50:37;;;;;;;4.95;4.10;;;;;;;;;;5033728;28;20204;-69
2023/09/29 09:53:07;;;;;;;5.70;3.47;;;;;;;;;;5040850;28;20200;-69
2023/09/29 09:55:38;;;;;;;4.07;3.88;;;;;;;;;;5029472;28;20303;-68
2023/09/29 09:58:12;;;;;;;4.90;4.43;;;;;;;;;;5039469;28;20728;-68
2023/09/29 10:00:41;;;;;;;3.88;3.67;;;;;;;;;;5048634;28;20212;-68
2023/09/29 10:03:11;;;;;;;4.90;4.28;;;;;;;;;;5046098;28;20561;-68
2023/09/29 10:05:40;;;;;;;6.50;4.07;;;;;;;;;;5045921;28;20230;-69
2023/09/29 10:08:10;;;;;;;5.43;3.70;;;;;;;;;;5048355;28;20290;-68
2023/09/29 10:10:39;;;;;;;4.07;3.67;;;;;;;;;;5048392;28;20662;-69
2023/09/29 10:13:07;;;;;;;6.32;3.55;;;;;;;;;;5047333;28;20215;-69
2023/09/29 10:15:35;;;;;;;3.55;3.30;;;;;;;;;;5048502;28;20212;-69
2023/09/29 10:18:15;;;;;;;4.80;3.80;;;;;;;;;;5048097;28;20678;-69
2023/09/29 10:20:43;;;;;;;6.85;3.22;;;;;;;;;;5047851;28;20264;-69
2023/09/29 10:23:13;;;;;;;6.05;3.30;;;;;;;;;;5047578;28;20255;-70
2023/09/29 10:25:41;;;;;;;5.47;4.30;;;;;;;;;;5048255;28;20674;-69
2023/09/29 10:28:12;;;;;;;6.28;4.03;;;;;;;;;;5047444;28;20192;-69
2023/09/29 10:30:40;;;;;;;7.32;3.40;;;;;;;;;;5047454;28;20798;-69
2023/09/29 10:33:11;;;;;;;3.80;3.50;;;;;;;;;;5047588;28;20270;-69
2023/09/29 10:35:44;;;;;;;7.70;4.28;;;;;;;;;;5042792;28;20211;-70
2023/09/29 10:38:12;;;;;;;4.18;3.85;;;;;;;;;;5028696;28;20889;-70
2023/09/29 10:40:39;;;;;;;6.43;3.47;;;;;;;;;;5028698;28;20208;-69
2023/09/29 10:43:06;;;;;;;4.35;3.50;;;;;;;;;;5042313;28;20215;-69
2023/09/29 10:45:36;;;;;;;4.88;3.53;;;;;;;;;;5047168;28;20211;-70
2023/09/29 10:48:05;;;;;;;3.58;3.38;;;;;;;;;;5045726;28;20207;-70
2023/09/29 10:50:39;;;;;;;4.50;3.47;;;;;;;;;;5047364;28;20211;-70
2023/09/29 10:53:07;;;;;;;4.38;3.78;;;;;;;;;;5046806;28;20215;-69
2023/09/29 10:55:35;;;;;;;4.10;3.70;;;;;;;;;;5042921;28;20215;-69
2023/09/29 10:58:03;;;;;;;4.75;3.90;;;;;;;;;;5047390;28;20212;-69
2023/09/29 11:00:30;;;;;;;3.58;3.38;;;;;;;;;;5045416;28;20686;-68
2023/09/29 11:02:57;;;;;;;3.47;3.38;;;;;;;;;;5045457;28;20212;-70
2023/09/29 11:05:24;;;;;;;3.70;3.47;;;;;;;;;;5046965;28;20218;-69
2023/09/29 11:07:54;;;;;;;3.85;3.55;;;;;;;;;;5046792;28;20302;-69
2023/09/29 11:10:21;;;;;;;3.50;3.30;;;;;;;;;;5036497;28;20212;-69
2023/09/29 11:12:49;;;;;;;4.07;3.83;;;;;;;;;;5038872;28;20212;-69
2023/09/29 11:15:17;;;;;;;3.47;3.15;;;;;;;;;;5045099;28;20572;-70
2023/09/29 11:17:46;;;;;;;3.30;3.10;;;;;;;;;;5041687;28;20223;-70
2023/09/29 11:20:16;;;;;;;3.55;3.17;;;;;;;;;;5040775;28;21067;-68
2023/09/29 11:22:43;;;;;;;2.45;2.25;;;;;;;;;;5030072;28;20228;-67
2023/09/29 11:25:19;;;;;;;3.00;2.80;;;;;;;;;;5036600;28;20207;-68
2023/09/29 11:27:50;;;;;;;5.20;2.50;;;;;;;;;;5046399;28;20303;-69
2023/09/29 11:30:19;;;;;;;6.07;2.85;;;;;;;;;;5045865;28;20242;-68
2023/09/29 11:32:46;;;;;;;6.07;2.40;;;;;;;;;;5046253;28;20216;-69
2023/09/29 11:35:16;;;;;;;2.50;2.30;;;;;;;;;;5046385;28;20223;-71
2023/09/29 11:37:43;;;;;;;2.72;2.63;;;;;;;;;;5046608;28;20211;-72
2023/09/29 11:40:12;;;;;;;4.07;2.58;;;;;;;;;;5046664;28;20252;-69
2023/09/29 11:42:41;;;;;;;3.10;2.90;;;;;;;;;;5045665;28;20203;-69
2023/09/29 11:45:09;;;;;;;2.47;2.38;;;;;;;;;;5045598;28;20621;-70
2023/09/29 11:47:38;;;;;;;4.10;2.45;;;;;;;;;;5044645;28;20258;-70
2023/09/29 11:50:05;;;;;;;2.55;2.38;;;;;;;;;;5043865;28;20226;-69
2023/09/29 11:52:34;;;;;;;2.85;2.53;;;;;;;;;;5042582;28;20211;-70
2023/09/29 11:55:03;;;;;;;2.55;2.35;;;;;;;;;;5043972;28;20301;-70
2023/09/29 11:57:30;;;;;;;3.03;2.60;;;;;;;;;;5042820;28;20207;-69
2023/09/29 11:59:58;;;;;;;2.42;2.33;;;;;;;;;;5045816;28;20277;-70
2023/09/29 12:02:25;;;;;;;2.97;2.30;;;;;;;;;;5045425;28;20261;-68
2023/09/29 12:04:52;;;;;;;2.67;2.58;;;;;;;;;;5045899;28;20216;-70
2023/09/29 12:07:19;;;;;;;3.40;2.40;;;;;;;;;;5031426;28;20231;-69
2023/09/29 12:09:46;;;;;;;3.08;2.60;;;;;;;;;;5044629;28;20212;-69
2023/09/29 12:12:14;;;;;;;2.60;2.40;;;;;;;;;;5045385;28;20196;-70
2023/09/29 12:14:41;;;;;;;4.85;2.63;;;;;;;;;;5045939;28;20808;-69
2023/09/29 12:17:09;;;;;;;2.95;2.58;;;;;;;;;;5046002;28;20214;-69
2023/09/29 12:19:37;;;;;;;3.22;2.97;;;;;;;;;;5038048;28;20235;-72
2023/09/29 12:22:04;;;;;;;2.53;2.33;;;;;;;;;;5039697;28;20236;-75
2023/09/29 12:24:31;;;;;;;2.13;2.00;;;;;;;;;;5045620;28;20204;-69
2023/09/29 12:26:58;;;;;;;3.03;1.88;;;;;;;;;;5041553;28;20218;-70
2023/09/29 12:29:25;;;;;;;2.50;2.10;;;;;;;;;;5040595;28;20298;-68
2023/09/29 12:31:53;;;;;;;7.03;2.13;;;;;;;;;;5045407;28;20657;-70
2023/09/29 12:34:21;;;;;;;2.05;1.92;;;;;;;;;;5038476;28;20211;-69
2023/09/29 12:36:48;;;;;;;5.28;2.42;;;;;;;;;;5043210;28;20203;-72
2023/09/29 12:39:15;;;;;;;2.83;2.30;;;;;;;;;;5042956;28;20518;-69
2023/09/29 12:41:42;;;;;;;2.10;2.00;;;;;;;;;;5041806;28;20214;-71
2023/09/29 12:44:10;;;;;;;3.80;2.30;;;;;;;;;;5043862;28;20206;-67
2023/09/29 12:46:38;;;;;;;5.57;2.33;;;;;;;;;;5044006;28;20200;-67
2023/09/29 12:49:05;;;;;;;6.40;2.72;;;;;;;;;;5035701;28;20208;-67
2023/09/29 12:51:33;;;;;;;10.10;3.08;;;;;;;;;;5026225;28;20216;-68
2023/09/29 12:54:01;;;;;;;4.55;3.40;;;;;;;;;;5038727;28;20749;-68
2023/09/29 12:56:28;;;;;;;4.13;2.22;;;;;;;;;;5036355;28;20211;-67
2023/09/29 12:58:55;;;;;;;2.67;2.40;;;;;;;;;;5046339;28;20235;-67
2023/09/29 13:01:22;;;;;;;6.32;2.40;;;;;;;;;;5046547;28;20208;-67
2023/09/29 13:03:49;;;;;;;7.65;3.05;;;;;;;;;;5042656;28;20238;-73
2023/09/29 13:06:17;;;;;;;3.30;2.83;;;;;;;;;;5030352;28;20237;-70
2023/09/29 13:08:45;;;;;;;3.97;2.67;;;;;;;;;;5032755;28;20738;-71
2023/09/29 13:11:16;;;;;;;3.33;2.22;;;;;;;;;;5039179;28;20757;-70
2023/09/29 13:13:43;;;;;;;5.32;2.97;;;;;;;;;;5029171;28;20215;-70
2023/09/29 13:16:11;;;;;;;5.53;3.00;;;;;;;;;;5045382;28;20199;-70
2023/09/29 13:18:38;;;;;;;5.88;2.80;;;;;;;;;;5048979;28;20234;-69
2023/09/29 13:21:05;;;;;;;5.47;2.63;;;;;;;;;;5040826;28;20200;-69
2023/09/29 13:23:32;;;;;;;6.07;3.15;;;;;;;;;;5049306;28;20643;-70
2023/09/29 13:26:01;;;;;;;4.78;3.20;;;;;;;;;;5049221;28;20893;-70
2023/09/29 13:28:28;;;;;;;4.97;3.03;;;;;;;;;;5049393;28;20654;-70
2023/09/29 13:30:57;;;;;;;7.93;3.35;;;;;;;;;;5047177;28;20729;-70
2023/09/29 13:33:26;;;;;;;7.25;3.67;;;;;;;;;;5046770;28;20207;-69
2023/09/29 13:35:53;;;;;;;7.53;3.70;;;;;;;;;;5044777;28;20235;-70
2023/09/29 13:38:21;;;;;;;10.88;4.68;;;;;;;;;;5045722;28;20692;-70
2023/09/29 13:40:52;;;;;;;10.45;5.38;;;;;;;;;;5042751;28;20234;-70
2023/09/29 13:43:21;;;;;;;15.00;6.00;;;;;;;;;;5045836;28;20208;-71
2023/09/29 13:45:48;;;;;;;14.85;6.20;;;;;;;;;;5048468;28;20568;-71
2023/09/29 13:48:15;;;;;;;21.77;8.52;;;;;;;;;;5048559;28;20219;-70
2023/09/29 13:50:44;;;;;;;17.83;8.40;;;;;;;;;;5049218;28;20230;-71
2023/09/29 13:53:11;;;;;;;24.38;9.82;;;;;;;;;;5034113;28;20218;-70
2023/09/29 13:55:39;;;;;;;25.98;8.82;;;;;;;;;;5038395;28;20682;-70
2023/09/29 13:58:06;;;;;;;28.02;10.13;;;;;;;;;;5046639;28;20303;-71
2023/09/29 14:00:34;;;;;;;26.30;10.38;;;;;;;;;;5047588;28;20236;-70
2023/09/29 14:03:02;;;;;;;27.35;10.18;;;;;;;;;;5048674;28;20218;-71
2023/09/29 14:05:31;;;;;;;28.88;10.63;;;;;;;;;;5049321;28;20208;-71
2023/09/29 14:07:58;;;;;;;29.52;10.77;;;;;;;;;;5047758;28;20206;-71
2023/09/29 14:10:25;;;;;;;29.83;11.20;;;;;;;;;;5049200;28;20208;-71
2023/09/29 14:12:53;;;;;;;31.73;11.93;;;;;;;;;;5046975;28;20218;-74
2023/09/29 14:15:20;;;;;;;32.53;11.93;;;;;;;;;;5048485;28;20215;-72
2023/09/29 14:17:48;;;;;;;28.00;11.43;;;;;;;;;;5046822;28;20234;-70
2023/09/29 14:20:16;;;;;;;31.73;12.77;;;;;;;;;;5048280;28;20701;-70
2023/09/29 14:22:43;;;;;;;29.63;11.43;;;;;;;;;;5047717;28;20247;-71
2023/09/29 14:25:11;;;;;;;35.63;12.43;;;;;;;;;;5048777;28;20214;-72
2023/09/29 14:27:38;;;;;;;30.50;12.85;;;;;;;;;;5048182;28;20227;-70
2023/09/29 14:30:06;;;;;;;31.10;11.93;;;;;;;;;;5048756;28;20295;-72
2023/09/29 14:32:33;;;;;;;29.02;10.88;;;;;;;;;;5048108;28;20262;-63
2023/09/29 14:35:01;;;;;;;30.27;11.55;;;;;;;;;;5043710;28;20212;-68
2023/09/29 14:37:28;;;;;;;29.95;11.40;;;;;;;;;;5048351;28;20208;-71
2023/09/29 14:39:57;;;;;;;26.90;11.10;;;;;;;;;;5048126;28;20230;-72
2023/09/29 14:42:24;;;;;;;27.85;10.82;;;;;;;;;;5048796;28;20503;-67
2023/09/29 14:44:51;;;;;;;28.58;10.80;;;;;;;;;;5047071;28;20577;-66